createdAt,value
2022-12-22T00:00:08.422Z,10.23
2022-12-22T00:02:59.347Z,9.02
2022-12-22T00:05:44.625Z,9.80
2022-12-22T00:08:45.377Z,9.95
2022-12-22T00:11:31.946Z,9.80
2022-12-22T00:14:42.619Z,9.93
2022-12-22T00:17:41.336Z,9.15
2022-12-22T00:20:38.849Z,8.87
2022-12-22T00:23:24.350Z,8.95
2022-12-22T00:26:09.274Z,8.98
2022-12-22T00:29:09.415Z,10.15
2022-12-22T00:31:54.352Z,8.38
2022-12-22T00:34:41.138Z,9.20
2022-12-22T00:37:31.158Z,9.02
2022-12-22T00:40:37.576Z,8.60
2022-12-22T00:43:22.876Z,8.95
2022-12-22T00:46:09.342Z,9.20
2022-12-22T00:48:55.063Z,9.10
2022-12-22T00:51:39.866Z,8.25
2022-12-22T00:54:31.911Z,9.10
2022-12-22T00:57:28.597Z,8.88
2022-12-22T01:00:18.904Z,9.82
2022-12-22T01:03:04.150Z,8.70
2022-12-22T01:06:05.295Z,9.68
2022-12-22T01:08:51.591Z,9.18
2022-12-22T01:11:36.464Z,9.00
2022-12-22T01:14:22.132Z,9.10
2022-12-22T01:17:07.009Z,8.88
2022-12-22T01:19:52.552Z,9.10
2022-12-22T01:22:40.041Z,9.05
2022-12-22T01:25:31.471Z,9.48
2022-12-22T01:28:16.415Z,8.77
2022-12-22T01:31:02.585Z,9.00
2022-12-22T01:33:50.797Z,10.02
2022-12-22T01:36:36.527Z,9.40
2022-12-22T01:39:22.515Z,9.18
2022-12-22T01:42:08.454Z,8.35
2022-12-22T01:44:59.555Z,8.65
2022-12-22T01:47:50.404Z,8.57
2022-12-22T01:50:50.795Z,8.70
2022-12-22T01:53:45.680Z,8.38
2022-12-22T01:56:30.906Z,9.07
2022-12-22T01:59:19.308Z,9.13
2022-12-22T02:02:04.713Z,9.05
2022-12-22T02:05:00.872Z,9.27
2022-12-22T02:08:05.973Z,9.15
2022-12-22T02:11:30.727Z,9.32
2022-12-22T02:14:30.291Z,8.75
2022-12-22T02:17:18.530Z,8.48
2022-12-22T02:20:22.236Z,8.40
2022-12-22T02:23:26.815Z,8.13
2022-12-22T02:26:45.156Z,9.32
2022-12-22T02:29:33.700Z,8.35
2022-12-22T02:32:18.851Z,8.43
2022-12-22T02:35:04.806Z,9.82
2022-12-22T02:38:13.243Z,8.52
2022-12-22T02:41:22.779Z,9.50
2022-12-22T02:47:45.700Z,8.43
2022-12-22T02:53:42.838Z,8.88
2022-12-22T02:56:29.630Z,10.10
2022-12-22T02:59:21.184Z,9.77
2022-12-22T03:05:40.780Z,9.88
2022-12-22T03:08:26.115Z,9.73
2022-12-22T03:11:11.262Z,9.88
2022-12-22T03:17:05.654Z,10.82
2022-12-22T03:19:50.794Z,10.23
2022-12-22T03:22:47.899Z,10.25
2022-12-22T03:25:33.449Z,10.10
2022-12-22T03:28:23.167Z,9.00
2022-12-22T03:30:55.777Z,9.95
2022-12-22T03:33:22.681Z,10.55
2022-12-22T03:35:49.260Z,10.57
2022-12-22T03:38:16.084Z,10.25
2022-12-22T03:40:44.584Z,9.85
2022-12-22T03:43:34.494Z,9.68
2022-12-22T03:46:29.422Z,9.88
2022-12-22T03:49:10.640Z,10.68
2022-12-22T03:51:48.877Z,10.30
2022-12-22T03:54:30.201Z,9.85
2022-12-22T03:56:56.789Z,10.27
2022-12-22T03:59:23.436Z,10.30
2022-12-22T04:01:54.595Z,10.40
2022-12-22T04:04:49.625Z,10.63
2022-12-22T04:07:16.197Z,10.88
2022-12-22T04:10:12.570Z,10.10
2022-12-22T04:16:13.254Z,10.65
2022-12-22T04:18:58.373Z,10.50
2022-12-22T04:21:28.125Z,12.07
2022-12-22T04:23:55.034Z,10.30
2022-12-22T04:26:23.434Z,12.18
2022-12-22T04:28:51.737Z,11.65
2022-12-22T04:31:19.176Z,11.93
2022-12-22T04:33:46.362Z,11.73
2022-12-22T04:36:13.666Z,13.23
2022-12-22T04:38:40.432Z,12.30
2022-12-22T04:41:07.565Z,11.85
2022-12-22T04:46:40.952Z,10.68
2022-12-22T04:49:07.687Z,11.20
2022-12-22T04:51:34.239Z,11.05
2022-12-22T04:54:00.772Z,12.45
2022-12-22T04:56:30.393Z,12.35
2022-12-22T05:01:23.706Z,13.65
2022-12-22T05:03:53.637Z,13.60
2022-12-22T05:07:10.647Z,12.68
2022-12-22T05:09:37.182Z,16.10
2022-12-22T05:12:23.868Z,13.73
2022-12-22T05:14:50.442Z,13.48
2022-12-22T05:17:17.055Z,14.60
2022-12-22T05:19:43.725Z,13.90
2022-12-22T05:22:10.366Z,17.73
2022-12-22T05:24:36.914Z,13.45
2022-12-22T05:29:44.608Z,14.48
2022-12-22T05:32:11.281Z,16.13
2022-12-22T05:34:37.878Z,15.18
2022-12-22T05:37:29.898Z,15.00
2022-12-22T05:40:06.176Z,14.40
2022-12-22T05:42:57.705Z,14.90
2022-12-22T05:45:24.369Z,14.80
2022-12-22T05:47:52.435Z,16.70
2022-12-22T05:50:24.497Z,15.50
2022-12-22T05:53:05.335Z,16.27
2022-12-22T05:55:32.430Z,17.73
2022-12-22T05:58:02.069Z,17.92
2022-12-22T06:00:30.837Z,17.83
2022-12-22T06:02:58.704Z,17.02
2022-12-22T06:05:25.613Z,18.70
2022-12-22T06:07:52.351Z,19.17
2022-12-22T06:10:19.102Z,19.95
2022-12-22T06:12:45.669Z,22.85
2022-12-22T06:15:13.979Z,21.05
2022-12-22T06:17:44.732Z,21.90
2022-12-22T06:20:13.648Z,22.30
2022-12-22T06:22:40.222Z,21.50
2022-12-22T06:25:18.029Z,21.50
2022-12-22T06:27:45.948Z,19.52
2022-12-22T06:30:12.936Z,19.45
2022-12-22T06:32:39.755Z,20.45
2022-12-22T06:35:14.329Z,19.83
2022-12-22T06:37:41.321Z,18.75
2022-12-22T06:40:09.340Z,18.55
2022-12-22T06:42:55.387Z,18.92
2022-12-22T06:45:42.050Z,18.38
2022-12-22T06:48:10.074Z,19.15
2022-12-22T06:51:01.774Z,17.60
2022-12-22T06:53:28.368Z,17.60
2022-12-22T06:55:54.913Z,16.90
2022-12-22T06:58:24.761Z,15.80
2022-12-22T07:00:51.837Z,16.75
2022-12-22T07:03:18.568Z,16.42
2022-12-22T07:05:45.959Z,16.80
2022-12-22T07:08:22.335Z,15.55
2022-12-22T07:10:58.819Z,17.02
2022-12-22T07:16:43.779Z,15.10
2022-12-22T07:19:14.470Z,16.13
2022-12-22T07:21:41.029Z,16.23
2022-12-22T07:24:08.024Z,15.57
2022-12-22T07:26:34.651Z,15.75
2022-12-22T07:29:02.413Z,14.82
2022-12-22T07:31:29.099Z,15.85
2022-12-22T07:33:56.055Z,16.35
2022-12-22T07:36:22.861Z,15.18
2022-12-22T07:38:51.398Z,17.77
2022-12-22T07:41:38.323Z,18.50
2022-12-22T07:44:07.094Z,19.65
2022-12-22T07:46:38.877Z,17.63
2022-12-22T07:52:41.926Z,16.38
2022-12-22T07:55:09.120Z,16.33
2022-12-22T07:57:36.047Z,16.40
2022-12-22T08:00:03.476Z,16.67
2022-12-22T08:02:39.521Z,16.95
2022-12-22T08:05:08.031Z,18.17
2022-12-22T08:07:35.096Z,18.35
2022-12-22T08:10:01.777Z,18.42
2022-12-22T08:12:29.731Z,18.20
2022-12-22T08:14:56.819Z,21.27
2022-12-22T08:17:23.548Z,17.42
2022-12-22T08:19:52.606Z,19.30
2022-12-22T08:22:19.541Z,17.88
2022-12-22T08:24:46.035Z,18.73
2022-12-22T08:27:19.551Z,18.75
2022-12-22T08:29:57.279Z,20.23
2022-12-22T08:32:24.537Z,19.98
2022-12-22T08:34:52.533Z,19.63
2022-12-22T08:37:22.691Z,20.45
2022-12-22T08:39:54.919Z,21.30
2022-12-22T08:42:22.792Z,22.90
2022-12-22T08:48:01.713Z,23.48
2022-12-22T08:50:28.328Z,24.63
2022-12-22T08:53:06.514Z,24.08
2022-12-22T08:55:33.462Z,25.08
2022-12-22T08:58:00.959Z,29.73
2022-12-22T09:00:27.694Z,28.40
2022-12-22T09:02:54.352Z,25.25
2022-12-22T09:05:21.148Z,24.35
2022-12-22T09:07:48.627Z,24.15
2022-12-22T09:13:08.767Z,23.38
2022-12-22T09:15:40.639Z,20.45
2022-12-22T09:18:29.227Z,20.02
2022-12-22T09:20:55.937Z,21.65
2022-12-22T09:23:31.358Z,20.17
2022-12-22T09:25:58.004Z,23.45
2022-12-22T09:28:30.644Z,23.55
2022-12-22T09:30:58.321Z,23.25
2022-12-22T09:33:26.355Z,30.95
2022-12-22T09:35:58.976Z,27.98
2022-12-22T09:38:45.524Z,28.35
2022-12-22T09:41:16.128Z,28.55
2022-12-22T09:43:43.602Z,26.17
2022-12-22T09:46:23.779Z,31.98
2022-12-22T09:48:50.927Z,33.63
2022-12-22T09:51:24.419Z,22.65
2022-12-22T09:53:59.463Z,22.88
2022-12-22T09:56:27.982Z,23.88
2022-12-22T09:58:59.007Z,23.80
2022-12-22T10:01:53.260Z,22.50
2022-12-22T10:05:01.565Z,22.52
2022-12-22T10:07:53.954Z,21.55
2022-12-22T10:10:27.633Z,21.70
2022-12-22T10:13:00.195Z,22.77
2022-12-22T10:15:27.950Z,22.63
2022-12-22T10:18:10.037Z,22.70
2022-12-22T10:20:46.169Z,28.35
2022-12-22T10:23:25.380Z,22.25
2022-12-22T10:28:48.292Z,27.67
2022-12-22T10:32:18.464Z,23.88
2022-12-22T10:35:06.190Z,21.40
2022-12-22T10:37:38.729Z,23.35
2022-12-22T10:40:33.407Z,23.35
2022-12-22T10:43:02.133Z,21.85
2022-12-22T10:45:28.746Z,22.33
2022-12-22T10:47:57.386Z,22.08
2022-12-22T10:50:24.213Z,23.00
2022-12-22T10:52:56.468Z,22.55
2022-12-22T10:55:29.322Z,23.67
2022-12-22T10:58:30.252Z,21.70
2022-12-22T11:01:05.147Z,22.55
2022-12-22T11:03:35.891Z,23.05
2022-12-22T11:06:02.552Z,23.73
2022-12-22T11:08:31.460Z,22.73
2022-12-22T11:11:11.065Z,21.00
2022-12-22T11:14:04.763Z,22.08
2022-12-22T11:16:51.560Z,24.27
2022-12-22T11:19:42.677Z,23.58
2022-12-22T11:22:28.276Z,24.08
2022-12-22T11:25:06.436Z,22.20
2022-12-22T11:28:04.325Z,22.67
2022-12-22T11:31:13.118Z,22.35
2022-12-22T11:33:54.648Z,24.70
2022-12-22T11:36:46.038Z,23.33
2022-12-22T11:39:15.522Z,23.90
2022-12-22T11:42:28.486Z,24.52
2022-12-22T11:45:30.625Z,23.60
2022-12-22T11:47:57.179Z,21.30
2022-12-22T11:51:01.264Z,22.25
2022-12-22T11:54:08.682Z,22.60
2022-12-22T11:56:47.294Z,20.42
2022-12-22T11:59:45.394Z,21.08
2022-12-22T12:02:44.477Z,19.77
2022-12-22T12:05:38.353Z,19.63
2022-12-22T12:08:16.236Z,19.85
2022-12-22T12:10:54.344Z,19.58
2022-12-22T12:13:37.487Z,19.73
2022-12-22T12:16:34.936Z,19.23
2022-12-22T12:19:26.857Z,17.95
2022-12-22T12:21:59.912Z,17.38
2022-12-22T12:24:52.004Z,18.20
2022-12-22T12:27:18.530Z,16.65
2022-12-22T12:33:06.564Z,16.73
2022-12-22T12:36:02.598Z,16.50
2022-12-22T12:39:07.526Z,16.52
2022-12-22T12:41:45.211Z,17.38
2022-12-22T12:44:15.254Z,16.67
2022-12-22T12:46:51.549Z,16.70
2022-12-22T12:50:02.057Z,16.73
2022-12-22T12:52:40.914Z,16.65
2022-12-22T12:55:32.536Z,14.20
2022-12-22T12:58:03.272Z,13.98
2022-12-22T13:00:35.837Z,13.40
2022-12-22T13:03:02.633Z,13.48
2022-12-22T13:05:33.023Z,13.73
2022-12-22T13:08:20.831Z,13.20
2022-12-22T13:10:55.450Z,14.23
2022-12-22T13:13:25.759Z,12.55
2022-12-22T13:16:13.452Z,13.13
2022-12-22T13:18:49.824Z,13.90
2022-12-22T13:22:31.790Z,14.40
2022-12-22T13:25:04.341Z,12.90
2022-12-22T13:27:36.974Z,13.63
2022-12-22T13:30:19.420Z,14.07
2022-12-22T13:33:08.311Z,13.63
2022-12-22T13:35:53.502Z,14.07
2022-12-22T13:41:43.046Z,13.27
2022-12-22T13:44:42.691Z,14.02
2022-12-22T13:47:15.549Z,13.57
2022-12-22T13:50:08.436Z,14.85
2022-12-22T13:53:06.145Z,13.23
2022-12-22T13:55:44.087Z,12.30
2022-12-22T13:58:32.135Z,12.85
2022-12-22T14:04:43.010Z,12.93
2022-12-22T14:07:14.998Z,13.70
2022-12-22T14:09:59.933Z,14.45
2022-12-22T14:12:45.034Z,13.32
2022-12-22T14:15:19.351Z,13.60
2022-12-22T14:17:52.903Z,13.13
2022-12-22T14:20:38.194Z,13.10
2022-12-22T14:23:30.687Z,14.07
2022-12-22T14:25:59.089Z,12.57
2022-12-22T14:28:29.886Z,13.77
2022-12-22T14:31:02.628Z,13.82
2022-12-22T14:33:32.892Z,12.98
2022-12-22T14:36:24.162Z,12.60
2022-12-22T14:38:56.421Z,13.30
2022-12-22T14:41:42.029Z,13.57
2022-12-22T14:44:20.969Z,12.18
2022-12-22T14:47:15.102Z,12.80
2022-12-22T14:49:50.983Z,11.70
2022-12-22T14:52:56.144Z,12.63
2022-12-22T14:55:37.833Z,12.07
2022-12-22T14:58:10.674Z,12.55
2022-12-22T15:00:40.752Z,12.82
2022-12-22T15:03:31.003Z,12.25
2022-12-22T15:06:44.747Z,13.38
2022-12-22T15:09:14.223Z,11.90
2022-12-22T15:14:16.260Z,12.95
2022-12-22T15:16:45.161Z,13.00
2022-12-22T15:19:17.135Z,12.70
2022-12-22T15:21:44.428Z,12.63
2022-12-22T15:24:15.474Z,12.80
2022-12-22T15:26:42.770Z,13.43
2022-12-22T15:29:09.446Z,12.25
2022-12-22T15:31:38.302Z,13.68
2022-12-22T15:34:13.473Z,11.93
2022-12-22T15:36:40.388Z,12.25
2022-12-22T15:39:13.687Z,12.23
2022-12-22T15:41:41.163Z,13.57
2022-12-22T15:44:08.274Z,14.40
2022-12-22T15:46:36.150Z,13.85
2022-12-22T15:49:03.440Z,14.18
2022-12-22T15:51:32.230Z,14.13
2022-12-22T15:54:00.105Z,15.20
2022-12-22T15:56:30.447Z,14.30
2022-12-22T15:58:57.822Z,14.43
2022-12-22T16:01:25.100Z,15.30
2022-12-22T16:03:52.457Z,15.95
2022-12-22T16:06:19.806Z,14.98
2022-12-22T16:08:53.621Z,14.85
2022-12-22T16:14:01.818Z,15.98
2022-12-22T16:16:28.980Z,15.73
2022-12-22T16:18:55.846Z,16.55
2022-12-22T16:21:29.558Z,17.65
2022-12-22T16:23:56.988Z,16.40
2022-12-22T16:26:23.708Z,17.45
2022-12-22T16:28:50.576Z,17.70
2022-12-22T16:31:21.479Z,18.50
2022-12-22T16:33:48.795Z,17.83
2022-12-22T16:36:15.606Z,19.42
2022-12-22T16:38:45.820Z,19.60
2022-12-22T16:41:25.498Z,18.55
2022-12-22T16:46:22.419Z,22.58
2022-12-22T16:48:55.567Z,24.08
2022-12-22T16:51:26.361Z,23.60
2022-12-22T16:53:53.081Z,25.88
2022-12-22T16:56:31.304Z,26.83
2022-12-22T16:58:58.844Z,25.45
2022-12-22T17:01:32.131Z,28.33
2022-12-22T17:04:04.940Z,24.25
2022-12-22T17:06:32.505Z,26.25
2022-12-22T17:08:59.559Z,26.20
2022-12-22T17:11:29.378Z,26.10
2022-12-22T17:14:04.652Z,26.05
2022-12-22T17:16:34.682Z,28.73
2022-12-22T17:19:01.839Z,27.25
2022-12-22T17:21:29.811Z,27.15
2022-12-22T17:24:03.731Z,27.95
2022-12-22T17:26:33.351Z,27.58
2022-12-22T17:29:00.282Z,27.50
2022-12-22T17:31:26.951Z,27.75
2022-12-22T17:33:53.810Z,26.65
2022-12-22T17:36:33.313Z,26.67
2022-12-22T17:39:01.719Z,26.55
2022-12-22T17:41:28.738Z,23.92
2022-12-22T17:43:55.341Z,26.48
2022-12-22T17:46:22.599Z,27.20
2022-12-22T17:48:50.194Z,25.75
2022-12-22T17:51:23.753Z,25.00
2022-12-22T17:53:51.955Z,25.00
2022-12-22T17:56:20.930Z,25.15
2022-12-22T17:58:48.671Z,24.88
2022-12-22T18:01:27.580Z,26.75
2022-12-22T18:03:56.020Z,25.58
2022-12-22T18:06:31.046Z,25.20
2022-12-22T18:08:58.627Z,25.05
2022-12-22T18:11:26.291Z,24.90
2022-12-22T18:13:54.090Z,23.75
2022-12-22T18:16:23.066Z,25.20
2022-12-22T18:18:49.895Z,26.30
2022-12-22T18:21:20.134Z,24.38
2022-12-22T18:23:50.336Z,23.88
2022-12-22T18:26:26.492Z,26.17
2022-12-22T18:28:54.231Z,24.55
2022-12-22T18:31:22.498Z,25.20
2022-12-22T18:33:49.219Z,25.90
2022-12-22T18:36:30.565Z,25.77
2022-12-22T18:38:58.650Z,26.85
2022-12-22T18:41:27.084Z,26.17
2022-12-22T18:43:53.843Z,24.90
2022-12-22T18:46:20.917Z,28.30
2022-12-22T18:48:48.390Z,26.42
2022-12-22T18:51:24.237Z,27.65
2022-12-22T18:53:52.513Z,28.08
2022-12-22T18:56:19.495Z,28.50
2022-12-22T18:58:46.690Z,28.23
2022-12-22T19:01:21.708Z,28.52
2022-12-22T19:03:50.324Z,29.65
2022-12-22T19:06:19.430Z,27.38
2022-12-22T19:08:48.250Z,27.50
2022-12-22T19:11:17.681Z,29.08
2022-12-22T19:13:47.004Z,29.00
2022-12-22T19:16:16.355Z,30.20
2022-12-22T19:18:43.048Z,27.95
2022-12-22T19:21:17.451Z,27.00
2022-12-22T19:23:44.630Z,28.00
2022-12-22T19:26:25.907Z,28.23
2022-12-22T19:28:55.832Z,27.42
2022-12-22T19:31:25.780Z,27.95
2022-12-22T19:33:53.462Z,29.40
2022-12-22T19:36:25.878Z,28.80
2022-12-22T19:39:03.316Z,29.88
2022-12-22T19:41:43.302Z,29.35
2022-12-22T19:44:25.415Z,29.45
2022-12-22T19:46:53.749Z,28.98
2022-12-22T19:49:23.118Z,29.42
2022-12-22T19:51:49.806Z,31.42
2022-12-22T19:54:17.094Z,29.27
2022-12-22T19:56:47.562Z,31.02
2022-12-22T19:59:41.057Z,28.92
2022-12-22T20:02:34.525Z,31.58
2022-12-22T20:05:01.464Z,32.13
2022-12-22T20:07:30.412Z,29.85
2022-12-22T20:09:56.968Z,30.38
2022-12-22T20:12:31.717Z,29.70
2022-12-22T20:14:58.748Z,30.45
2022-12-22T20:17:25.509Z,31.02
2022-12-22T20:20:01.329Z,29.20
2022-12-22T20:22:28.414Z,29.42
2022-12-22T20:24:55.219Z,29.38
2022-12-22T20:27:35.283Z,29.30
2022-12-22T20:30:01.890Z,29.77
2022-12-22T20:32:28.967Z,30.05
2022-12-22T20:35:11.503Z,31.17
2022-12-22T20:37:38.845Z,28.70
2022-12-22T20:40:25.791Z,29.58
2022-12-22T20:42:52.710Z,30.83
2022-12-22T20:45:29.690Z,32.72
2022-12-22T20:51:06.293Z,30.13
2022-12-22T20:54:01.599Z,28.97
2022-12-22T20:56:32.644Z,30.85
2022-12-22T20:59:07.541Z,29.35
2022-12-22T21:01:34.196Z,29.95
2022-12-22T21:04:00.860Z,29.52
2022-12-22T21:06:33.914Z,29.92
2022-12-22T21:09:03.422Z,29.65
2022-12-22T21:11:35.253Z,31.38
2022-12-22T21:14:05.130Z,30.58
2022-12-22T21:16:34.080Z,29.52
2022-12-22T21:19:03.933Z,29.45
2022-12-22T21:23:57.072Z,29.42
2022-12-22T21:26:37.117Z,30.30
2022-12-22T21:29:08.132Z,28.27
2022-12-22T21:31:36.339Z,29.35
2022-12-22T21:34:03.088Z,28.15
2022-12-22T21:36:32.673Z,29.10
2022-12-22T21:39:03.469Z,27.25
2022-12-22T21:41:48.905Z,25.48
2022-12-22T21:44:15.577Z,28.17
2022-12-22T21:46:44.557Z,24.85
2022-12-22T21:49:19.782Z,24.83
2022-12-22T21:52:12.182Z,22.63
2022-12-22T21:54:38.986Z,20.58
2022-12-22T21:57:05.881Z,18.45
2022-12-22T21:59:32.453Z,19.70
2022-12-22T22:01:59.155Z,18.05
2022-12-22T22:04:25.955Z,16.50
2022-12-22T22:06:52.572Z,14.48
2022-12-22T22:09:19.247Z,15.05
2022-12-22T22:12:04.255Z,12.88
2022-12-22T22:14:30.990Z,12.90
2022-12-22T22:16:57.655Z,12.88
2022-12-22T22:19:24.267Z,14.15
2022-12-22T22:21:50.982Z,13.18
2022-12-22T22:24:17.612Z,13.15
2022-12-22T22:26:46.009Z,14.30
2022-12-22T22:29:12.847Z,13.90
2022-12-22T22:31:40.451Z,13.75
2022-12-22T22:34:07.047Z,15.18
2022-12-22T22:36:33.628Z,14.93
2022-12-22T22:39:00.159Z,16.02
2022-12-22T22:41:28.482Z,16.30
2022-12-22T22:43:55.130Z,16.45
2022-12-22T22:46:21.806Z,16.20
2022-12-22T22:48:48.677Z,16.40
2022-12-22T22:51:15.241Z,17.20
2022-12-22T22:53:42.217Z,16.20
2022-12-22T22:56:09.179Z,16.02
2022-12-22T22:58:35.746Z,15.38
2022-12-22T23:01:11.298Z,15.77
2022-12-22T23:03:38.233Z,15.20
2022-12-22T23:06:07.799Z,14.93
2022-12-22T23:08:35.176Z,14.50
2022-12-22T23:11:02.827Z,15.52
2022-12-22T23:13:29.567Z,15.93
2022-12-22T23:15:58.433Z,17.15
2022-12-22T23:18:25.634Z,17.58
2022-12-22T23:20:52.453Z,17.27
2022-12-22T23:23:19.823Z,19.10
2022-12-22T23:25:49.605Z,18.85
2022-12-22T23:28:16.797Z,20.55
2022-12-22T23:30:45.313Z,21.45
2022-12-22T23:33:11.984Z,22.63
2022-12-22T23:35:40.257Z,21.73
2022-12-22T23:38:09.700Z,21.77
2022-12-22T23:40:54.710Z,22.85
2022-12-22T23:43:22.335Z,22.98
2022-12-22T23:45:49.207Z,23.00
2022-12-22T23:48:15.824Z,22.42
2022-12-22T23:50:45.889Z,23.55
2022-12-22T23:53:12.499Z,24.98
2022-12-22T23:55:44.584Z,24.27
2022-12-22T23:58:11.968Z,25.63
